createdAt,value
2023-02-17T00:00:42.156Z,29.82
2023-02-17T00:03:15.565Z,29.79
2023-02-17T00:05:57.431Z,29.80
2023-02-17T00:08:38.286Z,29.86
2023-02-17T00:11:08.385Z,30.02
2023-02-17T00:13:38.836Z,29.95
2023-02-17T00:16:12.023Z,29.95
2023-02-17T00:18:41.894Z,29.96
2023-02-17T00:29:34.813Z,30.30
2023-02-17T01:42:21.562Z,30.99
2023-02-17T01:49:49.761Z,30.98
2023-02-17T01:58:16.338Z,31.03
2023-02-17T02:01:15.017Z,31.17
2023-02-17T02:31:44.256Z,30.65
2023-02-17T02:48:49.036Z,29.86
2023-02-17T02:52:49.026Z,29.74
2023-02-17T02:56:07.284Z,29.76
2023-02-17T03:24:00.666Z,30.46
2023-02-17T03:27:01.125Z,30.24
2023-02-17T04:05:48.723Z,31.19
2023-02-17T04:08:57.369Z,31.11
2023-02-17T04:19:25.037Z,31.00
2023-02-17T04:23:05.790Z,31.01
2023-02-17T04:41:10.721Z,30.77
2023-02-17T04:47:18.887Z,30.67
2023-02-17T04:59:35.396Z,30.65
2023-02-17T05:10:55.644Z,30.50
2023-02-17T05:16:52.214Z,30.71
2023-02-17T05:20:03.056Z,30.63
2023-02-17T05:25:59.036Z,30.84
2023-02-17T05:48:43.831Z,29.52
2023-02-17T05:54:43.794Z,29.19
2023-02-17T06:00:35.029Z,28.89
2023-02-17T06:03:35.473Z,28.96
2023-02-17T06:06:18.251Z,29.11
2023-02-17T06:21:46.916Z,29.48
2023-02-17T06:24:54.444Z,29.35
2023-02-17T06:27:34.496Z,29.41
2023-02-17T06:30:22.418Z,29.41
2023-02-17T06:33:10.216Z,29.46
2023-02-17T06:36:00.267Z,29.52
2023-02-17T06:38:56.886Z,29.66
2023-02-17T06:41:40.519Z,29.77
2023-02-17T06:44:30.872Z,29.77
2023-02-17T06:47:23.972Z,29.69
2023-02-17T06:50:51.462Z,29.44
2023-02-17T06:53:46.651Z,29.43
2023-02-17T06:56:44.011Z,29.45
2023-02-17T06:59:31.228Z,29.45
2023-02-17T07:02:27.667Z,29.48
2023-02-17T07:05:13.150Z,28.89
2023-02-17T07:07:56.165Z,28.26
2023-02-17T07:10:42.575Z,28.12
2023-02-17T07:13:39.561Z,28.04
2023-02-17T07:16:29.655Z,28.10
2023-02-17T07:19:10.459Z,28.03
2023-02-17T07:21:46.946Z,27.95
2023-02-17T07:24:40.357Z,27.91
2023-02-17T07:27:36.658Z,27.86
2023-02-17T07:30:24.855Z,27.86
2023-02-17T07:33:12.523Z,27.96
2023-02-17T07:36:20.169Z,27.98
2023-02-17T07:39:11.770Z,27.92
2023-02-17T07:41:56.066Z,27.92
2023-02-17T07:44:45.962Z,27.95
2023-02-17T07:47:19.580Z,28.00
2023-02-17T07:50:11.606Z,28.27
2023-02-17T07:52:52.986Z,28.19
2023-02-17T08:03:11.563Z,28.37
2023-02-17T08:05:45.953Z,28.30
2023-02-17T08:08:35.098Z,28.19
2023-02-17T08:11:24.294Z,27.92
2023-02-17T08:13:58.119Z,28.12
2023-02-17T08:16:30.597Z,28.26
2023-02-17T08:19:00.054Z,28.34
2023-02-17T08:21:28.886Z,28.35
2023-02-17T08:23:58.248Z,28.32
2023-02-17T08:26:28.166Z,28.23
2023-02-17T08:28:58.699Z,28.25
2023-02-17T08:31:29.658Z,28.47
2023-02-17T08:34:01.000Z,28.48
2023-02-17T08:36:30.680Z,28.43
2023-02-17T08:39:01.014Z,28.46
2023-02-17T08:41:31.992Z,28.53
2023-02-17T08:44:03.833Z,28.72
2023-02-17T08:46:44.615Z,28.87
2023-02-17T08:49:16.026Z,28.83
2023-02-17T08:51:45.933Z,28.85
2023-02-17T08:54:17.511Z,28.89
2023-02-17T08:56:47.519Z,28.76
2023-02-17T08:59:19.465Z,28.68
2023-02-17T09:01:48.937Z,28.68
2023-02-17T09:04:18.274Z,28.70
2023-02-17T09:06:49.499Z,28.70
2023-02-17T09:09:22.946Z,28.70
2023-02-17T09:11:55.927Z,28.80
2023-02-17T09:21:14.998Z,29.28
2023-02-17T09:23:45.640Z,29.26
2023-02-17T09:26:19.826Z,29.26
2023-02-17T09:28:49.063Z,29.27
2023-02-17T09:31:22.790Z,29.46
2023-02-17T09:33:57.185Z,29.21
2023-02-17T09:36:35.513Z,29.15
2023-02-17T09:39:07.935Z,29.37
2023-02-17T09:41:39.830Z,29.18
2023-02-17T09:44:24.293Z,29.04
2023-02-17T09:47:21.602Z,29.06
2023-02-17T09:49:56.863Z,29.33
2023-02-17T09:52:40.002Z,30.32
2023-02-17T09:55:14.293Z,30.73
2023-02-17T09:57:52.833Z,30.71
2023-02-17T10:00:30.792Z,30.83
2023-02-17T10:03:22.170Z,30.88
2023-02-17T10:06:25.563Z,30.90
2023-02-17T10:09:22.611Z,30.92
2023-02-17T10:12:02.712Z,30.97
2023-02-17T10:14:37.669Z,30.96
2023-02-17T10:17:21.116Z,30.98
2023-02-17T10:20:04.294Z,30.98
2023-02-17T10:22:34.597Z,31.10
2023-02-17T10:25:19.771Z,31.20
2023-02-17T10:27:55.208Z,31.26
2023-02-17T10:30:42.330Z,31.27
2023-02-17T10:33:39.362Z,30.32
2023-02-17T10:36:13.537Z,30.04
2023-02-17T10:38:50.762Z,29.99
2023-02-17T10:41:37.898Z,30.17
2023-02-17T10:44:14.164Z,30.26
2023-02-17T10:46:44.212Z,30.24
2023-02-17T10:49:38.029Z,30.19
2023-02-17T10:52:22.433Z,30.29
2023-02-17T10:55:23.207Z,30.56
2023-02-17T10:58:06.649Z,31.29
2023-02-17T11:00:42.674Z,31.34
2023-02-17T11:03:21.757Z,31.77
2023-02-17T11:06:01.596Z,31.98
2023-02-17T11:08:30.595Z,32.00
2023-02-17T11:11:03.035Z,31.95
2023-02-17T11:13:36.776Z,31.87
2023-02-17T11:16:06.942Z,31.85
2023-02-17T11:18:39.577Z,31.91
2023-02-17T11:21:15.535Z,31.81
2023-02-17T11:23:56.094Z,31.69
2023-02-17T11:26:29.072Z,31.57
2023-02-17T11:29:18.433Z,31.37
2023-02-17T11:32:07.597Z,31.23
2023-02-17T11:34:40.977Z,31.26
2023-02-17T11:37:11.731Z,31.10
2023-02-17T11:39:48.866Z,31.18
2023-02-17T11:42:24.580Z,31.26
2023-02-17T11:44:56.181Z,31.50
2023-02-17T11:47:50.099Z,31.54
2023-02-17T11:51:14.439Z,31.60
2023-02-17T11:53:58.600Z,31.70
2023-02-17T11:56:37.987Z,31.69
2023-02-17T12:00:01.218Z,31.75
2023-02-17T12:02:59.905Z,32.21
2023-02-17T12:05:39.029Z,32.10
2023-02-17T12:08:32.894Z,32.00
2023-02-17T12:11:16.183Z,31.99
2023-02-17T12:13:51.285Z,32.02
2023-02-17T12:16:32.822Z,32.09
2023-02-17T12:19:23.352Z,32.22
2023-02-17T12:22:07.952Z,32.25
2023-02-17T12:24:49.682Z,32.26
2023-02-17T12:27:28.095Z,32.25
2023-02-17T12:30:39.246Z,32.34
2023-02-17T12:33:51.613Z,32.31
2023-02-17T12:36:20.613Z,32.36
2023-02-17T12:38:54.040Z,32.38
2023-02-17T12:42:10.915Z,32.42
2023-02-17T12:44:53.739Z,32.56
2023-02-17T12:47:28.538Z,32.92
2023-02-17T12:50:03.876Z,32.96
2023-02-17T12:52:41.062Z,32.97
2023-02-17T12:55:26.229Z,32.86
2023-02-17T12:58:18.422Z,32.96
2023-02-17T13:00:55.642Z,33.09
2023-02-17T13:03:25.141Z,33.04
2023-02-17T13:06:25.917Z,32.16
2023-02-17T13:09:17.601Z,31.98
2023-02-17T13:11:46.401Z,31.98
2023-02-17T13:14:27.500Z,31.96
2023-02-17T13:16:56.690Z,31.89
2023-02-17T13:19:29.984Z,31.57
2023-02-17T13:22:00.361Z,32.36
2023-02-17T13:24:39.138Z,32.75
2023-02-17T13:27:33.178Z,32.63
2023-02-17T13:30:10.534Z,32.66
2023-02-17T13:32:40.594Z,32.66
2023-02-17T13:35:16.196Z,32.64
2023-02-17T13:37:45.970Z,32.66
2023-02-17T13:40:20.199Z,32.69
2023-02-17T13:42:55.315Z,32.70
2023-02-17T13:45:35.392Z,32.74
2023-02-17T13:48:22.615Z,32.82
2023-02-17T13:51:01.774Z,32.88
2023-02-17T13:53:30.697Z,32.85
2023-02-17T13:56:02.090Z,32.54
2023-02-17T13:58:36.293Z,32.47
2023-02-17T14:01:06.781Z,32.44
2023-02-17T14:03:40.422Z,32.51
2023-02-17T14:06:14.248Z,32.46
2023-02-17T14:08:43.406Z,32.54
2023-02-17T14:11:20.207Z,32.69
2023-02-17T14:13:52.534Z,32.86
2023-02-17T14:16:56.758Z,32.75
2023-02-17T14:19:25.611Z,32.69
2023-02-17T14:21:59.505Z,32.59
2023-02-17T14:24:36.409Z,32.78
2023-02-17T14:27:08.580Z,32.76
2023-02-17T14:29:43.063Z,32.66
2023-02-17T14:32:38.813Z,32.56
2023-02-17T14:35:13.405Z,32.30
2023-02-17T14:37:42.653Z,32.26
2023-02-17T14:40:24.846Z,32.21
2023-02-17T14:42:54.915Z,32.00
2023-02-17T14:45:24.500Z,31.95
2023-02-17T14:47:53.826Z,31.93
2023-02-17T14:50:22.568Z,31.96
2023-02-17T14:52:52.874Z,32.02
2023-02-17T14:55:34.161Z,32.07
2023-02-17T14:58:03.557Z,32.16
2023-02-17T15:00:32.703Z,32.20
2023-02-17T15:03:01.626Z,32.22
2023-02-17T15:05:30.611Z,32.14
2023-02-17T15:08:00.836Z,32.13
2023-02-17T15:10:31.836Z,32.12
2023-02-17T15:13:01.716Z,32.02
2023-02-17T15:15:39.694Z,31.87
2023-02-17T15:18:08.476Z,31.89
2023-02-17T15:20:37.396Z,31.80
2023-02-17T15:23:11.117Z,31.71
2023-02-17T15:25:41.731Z,31.71
2023-02-17T15:28:16.018Z,31.70
2023-02-17T15:30:49.008Z,31.79
2023-02-17T15:33:18.400Z,31.79
2023-02-17T15:35:48.275Z,31.74
2023-02-17T15:38:17.028Z,31.68
2023-02-17T15:40:46.161Z,31.70
2023-02-17T15:43:20.107Z,31.72
2023-02-17T15:45:49.322Z,31.76
2023-02-17T15:48:25.973Z,31.93
2023-02-17T15:50:54.942Z,32.05
2023-02-17T15:53:24.355Z,32.22
2023-02-17T15:55:53.170Z,32.20
2023-02-17T15:58:22.346Z,32.21
2023-02-17T16:01:12.911Z,32.48
2023-02-17T16:03:41.889Z,32.49
2023-02-17T16:06:11.218Z,32.41
2023-02-17T16:08:40.489Z,32.35
2023-02-17T16:11:14.799Z,32.18
2023-02-17T16:13:45.079Z,32.20
2023-02-17T16:16:34.298Z,32.45
2023-02-17T16:19:03.288Z,32.57
2023-02-17T16:21:32.109Z,32.39
2023-02-17T16:24:01.132Z,32.30
2023-02-17T16:26:33.396Z,32.14
2023-02-17T16:29:04.752Z,32.01
2023-02-17T16:31:36.217Z,31.91
2023-02-17T16:34:05.376Z,31.83
2023-02-17T16:36:35.095Z,31.80
2023-02-17T16:39:11.295Z,31.84
2023-02-17T16:41:40.524Z,31.87
2023-02-17T16:44:14.588Z,31.74
2023-02-17T16:46:48.930Z,31.87
2023-02-17T16:49:32.395Z,31.82
2023-02-17T16:52:05.361Z,31.90
2023-02-17T16:54:35.722Z,31.76
2023-02-17T16:57:05.049Z,30.86
2023-02-17T16:59:33.931Z,30.58
2023-02-17T17:02:04.761Z,30.37
2023-02-17T17:04:33.638Z,30.39
2023-02-17T17:07:02.470Z,31.00
2023-02-17T17:09:31.429Z,31.50
2023-02-17T17:12:01.169Z,31.57
2023-02-17T17:14:30.246Z,31.65
2023-02-17T17:17:01.526Z,31.73
2023-02-17T17:19:30.386Z,31.73
2023-02-17T17:21:59.330Z,31.74
2023-02-17T17:24:28.008Z,31.79
2023-02-17T17:26:56.688Z,31.84
2023-02-17T17:29:25.565Z,31.73
2023-02-17T17:31:54.460Z,31.67
2023-02-17T17:34:23.728Z,31.55
2023-02-17T17:36:52.806Z,31.41
2023-02-17T17:39:24.186Z,31.43
2023-02-17T17:41:53.231Z,31.40
2023-02-17T17:44:22.300Z,31.42
2023-02-17T17:46:51.086Z,31.58
2023-02-17T17:49:19.887Z,31.46
2023-02-17T17:51:48.648Z,31.28
2023-02-17T17:54:17.933Z,31.09
2023-02-17T17:56:47.845Z,31.26
2023-02-17T17:59:17.593Z,31.57
2023-02-17T18:01:47.118Z,31.54
2023-02-17T18:04:16.091Z,31.51
2023-02-17T18:06:48.159Z,31.41
2023-02-17T18:09:31.932Z,31.33
2023-02-17T18:12:04.218Z,31.72
2023-02-17T18:14:34.229Z,31.84
2023-02-17T18:17:03.055Z,31.76
2023-02-17T18:19:34.118Z,32.04
2023-02-17T18:22:03.280Z,31.98
2023-02-17T18:24:32.835Z,31.95
2023-02-17T18:27:01.803Z,31.81
2023-02-17T18:29:30.950Z,31.82
2023-02-17T18:32:00.546Z,31.93
2023-02-17T18:34:31.942Z,31.99
2023-02-17T18:37:01.071Z,31.67
2023-02-17T18:39:30.036Z,31.28
2023-02-17T18:41:58.821Z,31.21
2023-02-17T18:44:27.733Z,31.22
2023-02-17T18:46:57.717Z,31.19
2023-02-17T18:49:27.523Z,31.20
2023-02-17T18:51:56.468Z,31.21
2023-02-17T18:54:25.329Z,31.45
2023-02-17T18:56:54.270Z,31.24
2023-02-17T18:59:23.070Z,31.08
2023-02-17T19:01:51.888Z,31.02
2023-02-17T19:04:20.940Z,31.05
2023-02-17T19:06:49.837Z,30.89
2023-02-17T19:09:19.197Z,31.18
2023-02-17T19:11:48.396Z,31.26
2023-02-17T19:14:17.336Z,31.20
2023-02-17T19:16:46.575Z,31.20
2023-02-17T19:19:15.426Z,31.12
2023-02-17T19:21:44.175Z,31.02
2023-02-17T19:24:17.731Z,31.15
2023-02-17T19:26:47.164Z,31.45
2023-02-17T19:29:15.986Z,31.22
2023-02-17T19:31:44.877Z,31.14
2023-02-17T19:34:14.014Z,31.11
2023-02-17T19:36:42.950Z,30.83
2023-02-17T19:39:11.826Z,31.02
2023-02-17T19:41:40.561Z,31.05
2023-02-17T19:44:10.487Z,30.93
2023-02-17T19:46:39.506Z,30.90
2023-02-17T19:49:08.953Z,30.88
2023-02-17T19:51:38.720Z,31.10
2023-02-17T19:54:07.501Z,31.26
2023-02-17T19:56:37.632Z,31.17
2023-02-17T19:59:07.183Z,31.18
2023-02-17T20:01:36.801Z,31.42
2023-02-17T20:04:10.904Z,31.67
2023-02-17T20:06:46.186Z,31.57
2023-02-17T20:09:17.623Z,31.55
2023-02-17T20:11:47.378Z,31.61
2023-02-17T20:14:18.195Z,31.76
2023-02-17T20:16:48.868Z,31.66
2023-02-17T20:19:17.871Z,31.70
2023-02-17T20:21:46.447Z,31.64
2023-02-17T20:24:16.003Z,31.57
2023-02-17T20:26:46.642Z,31.50
2023-02-17T20:29:16.569Z,31.24
2023-02-17T20:31:51.100Z,31.12
2023-02-17T20:34:37.032Z,31.33
2023-02-17T20:37:09.369Z,31.36
2023-02-17T20:39:40.548Z,31.42
2023-02-17T20:42:09.270Z,31.65
2023-02-17T20:44:39.110Z,31.69
2023-02-17T20:47:08.116Z,31.62
2023-02-17T20:49:37.146Z,31.48
2023-02-17T20:52:06.537Z,30.90
2023-02-17T20:54:35.577Z,30.52
2023-02-17T20:57:11.566Z,30.39
2023-02-17T20:59:40.466Z,30.35
2023-02-17T21:02:14.306Z,30.32
2023-02-17T21:04:43.023Z,30.18
2023-02-17T21:07:12.050Z,30.34
2023-02-17T21:09:45.428Z,30.50
2023-02-17T21:12:14.281Z,30.34
2023-02-17T21:14:42.923Z,30.31
2023-02-17T21:17:13.396Z,30.72
2023-02-17T21:19:42.681Z,30.68
2023-02-17T21:22:11.143Z,30.67
2023-02-17T21:24:40.993Z,30.73
2023-02-17T21:27:14.956Z,30.63
2023-02-17T21:29:54.203Z,30.64
2023-02-17T21:32:24.568Z,30.74
2023-02-17T21:34:55.160Z,30.80
2023-02-17T21:37:24.203Z,30.82
2023-02-17T21:39:53.158Z,30.76
2023-02-17T21:42:43.188Z,30.71
2023-02-17T21:45:13.603Z,30.88
2023-02-17T21:47:42.317Z,30.88
2023-02-17T21:50:11.328Z,30.94
2023-02-17T21:52:40.609Z,30.79
2023-02-17T21:55:09.401Z,30.69
2023-02-17T21:57:39.226Z,30.67
2023-02-17T22:00:12.259Z,30.61
2023-02-17T22:02:43.488Z,30.48
2023-02-17T22:05:13.051Z,30.02
2023-02-17T22:07:42.815Z,30.31
2023-02-17T22:10:11.541Z,30.50
2023-02-17T22:12:42.112Z,30.55
2023-02-17T22:15:11.818Z,30.47
2023-02-17T22:17:42.246Z,30.48
2023-02-17T22:20:11.220Z,30.62
2023-02-17T22:22:39.966Z,30.90
2023-02-17T22:25:08.870Z,30.94
2023-02-17T22:27:37.787Z,30.45
2023-02-17T22:30:09.448Z,30.54
2023-02-17T22:32:38.260Z,30.57
2023-02-17T22:35:07.033Z,30.52
2023-02-17T22:37:38.583Z,30.52
2023-02-17T22:40:11.619Z,30.51
2023-02-17T22:42:41.973Z,30.58
2023-02-17T22:45:11.115Z,30.74
2023-02-17T22:47:39.683Z,30.79
2023-02-17T22:50:08.368Z,30.75
2023-02-17T22:52:36.947Z,30.72
2023-02-17T22:55:05.836Z,30.56
2023-02-17T22:57:35.955Z,30.42
2023-02-17T23:00:05.364Z,30.39
2023-02-17T23:02:35.713Z,30.29
2023-02-17T23:05:04.990Z,30.20
2023-02-17T23:07:33.813Z,30.08
2023-02-17T23:10:02.631Z,29.97
2023-02-17T23:12:31.822Z,30.05
2023-02-17T23:15:01.106Z,30.07
2023-02-17T23:17:50.192Z,30.29
2023-02-17T23:20:25.114Z,30.30
2023-02-17T23:22:53.778Z,29.92
2023-02-17T23:25:24.310Z,29.91
2023-02-17T23:27:54.471Z,30.19
2023-02-17T23:30:23.613Z,30.16
2023-02-17T23:32:53.929Z,29.75
2023-02-17T23:35:22.775Z,29.04
2023-02-17T23:37:52.452Z,28.89
2023-02-17T23:40:21.664Z,28.77
2023-02-17T23:42:51.054Z,28.80
2023-02-17T23:45:19.735Z,28.88
2023-02-17T23:47:49.706Z,28.99
2023-02-17T23:50:19.325Z,29.08
2023-02-17T23:52:48.891Z,29.06
2023-02-17T23:55:17.608Z,29.00
2023-02-17T23:57:46.147Z,28.99
